Marion, TX (78124)

12:58 PM CDT on March 24, 2017 (GMT -0500)
Marion | | Change Station

Elev 656 ft 29.55 °N, 98.13 °W | Updated 10 seconds ago

Overcast
Overcast
75.6 °F
Feels Like 77 °F
N
9.0
Wind Variable Wind from SSE
Gusts 14.0 mph

Today
High -- | Low -- °F
--% Chance of Precip.
Yesterday
High -- | Low -- °F
Precip. -- in
Pressure 29.95 in
Visibility 10.0 miles
Clouds Few 300 ft
Scattered Clouds 1900 ft
Scattered Clouds 4600 ft
Mostly Cloudy 6000 ft
Mostly Cloudy 7500 ft
Heat Index 77 °F
Dew Point 67 °F
Humidity 75%
Rainfall 0.00 in
Snow Depth Not available.
7:31 AM 7:46 PM
Waning Crescent, 14% visible
SPECI KRND 241729Z 21008KT 10SM FEW003 SCT019 SCT046 BKN060 BKN075 22/22 A2996 RMK AO2A RAE19DZB19E29 CIG 044 RWY32R SLP140
Pressure 29.95 in
Visibility 10.0 miles
Clouds Few 300 ft
Scattered Clouds 1900 ft
Scattered Clouds 4600 ft
Mostly Cloudy 6000 ft
Mostly Cloudy 7500 ft
Heat Index 77 °F
Dew Point 67 °F
Humidity 75%
Rainfall 0.00 in
Snow Depth Not available.
7:31 AM 7:46 PM
Waning Crescent, 14% visible
SPECI KRND 241729Z 21008KT 10SM FEW003 SCT019 SCT046 BKN060 BKN075 22/22 A2996 RMK AO2A RAE19DZB19E29 CIG 044 RWY32R SLP140

Get Severe Weather Alerts

Thanks for signing up!

Be on the lookout for a verification email in your inbox.

You'll start receiving the daily forecast at 8 AM.

×

10-Day Weather Forecast

Almanac

Astronomy

Mar. 24, 2017 Rise Set
Actual Time
Civil Twilight
Nautical Twilight
Astronomical Twilight
Moon
Length of Visible Light
Length of Day
Tomorrow will be .
, % of the Moon is Illuminated

Today's Extremes

State Highs State Lows

Community

WunderPhotos

Upload Photos

1,962,540 photos uploaded!

WunderBlog® & News

Nearby

Air Quality

  Air Quality AQ Index Pollutant
Not available.

Snow Depth

Station Depth Elevation

Earthquake Activity

City Distance Mag. Time & Date
Minimum magnitude displayed is 2.5.

Earthquake Activity

City Distance Mag. Time & Date
Minimum magnitude displayed is 2.5.

Coastal Water Temperatures

Place Temperature

Stations

Nearby Weather Stations

Station Location Temp. Windchill Dew Point Humidity Wind Precip. Elev Updated Type
                   

Watches & Warnings

There are currently no watches in effect.